Time,TemperatureF,DewpointF,PressureIn,WindDirection,WindDirectionDegrees,WindSpeedMPH,WindSpeedGustMPH,Humidity,HourlyPrecipIn,Conditions,Clouds,dailyrainin,SoftwareType,DateUTC
2013-08-03 00:00:00,78.8,76.0,29.97,South,177,0.0,-999.0,91,-99.99,,,0.00,weatherlink.com 1.10,2013-08-03 04:00:00,
2013-08-03 00:15:00,78.5,76.0,29.96,SW,236,0.0,-999.0,92,-99.99,,,0.00,weatherlink.com 1.10,2013-08-03 04:15:00,
2013-08-03 00:30:00,78.1,76.0,29.96,SW,236,0.0,-999.0,92,-99.99,,,0.00,weatherlink.com 1.10,2013-08-03 04:30:00,
2013-08-03 00:45:00,77.9,76.0,29.97,SW,236,0.0,-999.0,92,-99.99,,,0.00,weatherlink.com 1.10,2013-08-03 04:45:00,
2013-08-03 01:00:00,77.7,75.0,29.97,WNW,297,0.0,-999.0,92,-99.99,,,0.00,weatherlink.com 1.10,2013-08-03 05:00:00,
2013-08-03 01:15:00,77.6,75.0,29.97,WSW,249,0.0,-999.0,92,-99.99,,,0.00,weatherlink.com 1.10,2013-08-03 05:15:00,
2013-08-03 01:30:00,77.4,75.0,29.97,WSW,249,0.0,-999.0,92,-99.99,,,0.00,weatherlink.com 1.10,2013-08-03 05:30:00,
2013-08-03 01:45:00,77.2,75.0,29.97,WSW,249,0.0,-999.0,93,-99.99,,,0.00,weatherlink.com 1.10,2013-08-03 05:45:00,
2013-08-03 02:00:00,77.1,75.0,29.97,WSW,249,0.0,-999.0,92,-99.99,,,0.00,weatherlink.com 1.10,2013-08-03 06:00:00,
2013-08-03 02:15:00,76.9,75.0,29.97,WSW,249,0.0,-999.0,92,-99.99,,,0.00,weatherlink.com 1.10,2013-08-03 06:15:00,
2013-08-03 02:30:00,76.6,75.0,29.96,WSW,249,0.0,-999.0,93,-99.99,,,0.00,weatherlink.com 1.10,2013-08-03 06:30:00,
2013-08-03 02:45:00,76.4,74.0,29.96,WSW,249,0.0,-999.0,93,-99.99,,,0.00,weatherlink.com 1.10,2013-08-03 06:45:00,
2013-08-03 03:00:00,76.1,74.0,29.96,WSW,249,0.0,-999.0,93,-99.99,,,0.00,weatherlink.com 1.10,2013-08-03 07:00:00,
2013-08-03 03:15:00,76.1,74.0,29.95,NW,314,0.0,-999.0,93,-99.99,,,0.00,weatherlink.com 1.10,2013-08-03 07:15:00,
2013-08-03 03:30:00,76.0,74.0,29.95,WNW,282,0.0,-999.0,94,-99.99,,,0.00,weatherlink.com 1.10,2013-08-03 07:30:00,
2013-08-03 03:46:00,75.8,74.0,29.95,WNW,282,0.0,-999.0,94,-99.99,,,0.00,weatherlink.com 1.10,2013-08-03 07:46:00,
2013-08-03 04:01:00,75.5,74.0,29.95,WNW,282,0.0,-999.0,94,-99.99,,,0.00,weatherlink.com 1.10,2013-08-03 08:01:00,
2013-08-03 04:16:00,75.1,74.0,29.95,WNW,282,0.0,-999.0,95,-99.99,,,0.00,weatherlink.com 1.10,2013-08-03 08:16:00,
2013-08-03 04:31:00,74.8,73.0,29.95,WNW,282,0.0,-999.0,95,-99.99,,,0.00,weatherlink.com 1.10,2013-08-03 08:31:00,
2013-08-03 04:46:00,74.6,73.0,29.94,WNW,282,0.0,-999.0,95,-99.99,,,0.00,weatherlink.com 1.10,2013-08-03 08:46:00,
2013-08-03 05:00:00,74.4,73.0,29.95,WNW,282,0.0,-999.0,96,-99.99,,,0.00,weatherlink.com 1.10,2013-08-03 09:00:00,
2013-08-03 05:15:00,74.6,73.0,29.95,WNW,282,0.0,-999.0,96,-99.99,,,0.00,weatherlink.com 1.10,2013-08-03 09:15:00,
2013-08-03 05:30:00,74.7,74.0,29.96,WNW,282,0.0,-999.0,96,-99.99,,,0.00,weatherlink.com 1.10,2013-08-03 09:30:00,
2013-08-03 05:46:00,74.7,74.0,29.95,WNW,282,0.0,-999.0,96,-99.99,,,0.00,weatherlink.com 1.10,2013-08-03 09:46:00,
2013-08-03 06:01:00,74.7,74.0,29.96,WNW,282,0.0,-999.0,96,-99.99,,,0.00,weatherlink.com 1.10,2013-08-03 10:01:00,
2013-08-03 06:16:00,74.6,73.0,29.97,WNW,282,0.0,-999.0,96,-99.99,,,0.00,weatherlink.com 1.10,2013-08-03 10:16:00,
2013-08-03 06:31:00,74.5,74.0,29.96,WNW,282,0.0,-999.0,97,-99.99,,,0.00,weatherlink.com 1.10,2013-08-03 10:31:00,
2013-08-03 06:46:00,74.3,73.0,29.97,WNW,283,0.0,-999.0,97,-99.99,,,0.00,weatherlink.com 1.10,2013-08-03 10:46:00,
2013-08-03 07:01:00,74.3,73.0,29.97,WNW,282,0.0,-999.0,97,-99.99,,,0.00,weatherlink.com 1.10,2013-08-03 11:01:00,
2013-08-03 07:16:00,74.7,74.0,29.97,WNW,282,0.0,-999.0,97,-99.99,,,0.00,weatherlink.com 1.10,2013-08-03 11:16:00,
2013-08-03 07:31:00,75.1,74.0,29.97,WNW,282,0.0,-999.0,97,-99.99,,,0.00,weatherlink.com 1.10,2013-08-03 11:31:00,
2013-08-03 07:46:00,75.5,74.0,29.98,WNW,283,0.0,-999.0,96,-99.99,,,0.00,weatherlink.com 1.10,2013-08-03 11:46:00,
2013-08-03 08:01:00,75.7,74.0,29.98,WNW,282,0.0,-999.0,95,-99.99,,,0.00,weatherlink.com 1.10,2013-08-03 12:01:00,
2013-08-03 08:16:00,76.1,74.0,29.98,South,178,0.0,-999.0,94,-99.99,,,0.00,weatherlink.com 1.10,2013-08-03 12:16:00,
2013-08-03 08:31:00,76.5,74.0,29.98,South,178,1.0,-999.0,93,-99.99,,,0.00,weatherlink.com 1.10,2013-08-03 12:31:00,
2013-08-03 08:46:00,76.8,75.0,29.98,West,266,0.0,-999.0,93,-99.99,,,0.00,weatherlink.com 1.10,2013-08-03 12:46:00,
2013-08-03 09:01:00,77.5,75.0,29.97,West,266,0.0,-999.0,91,-99.99,,,0.00,weatherlink.com 1.10,2013-08-03 13:01:00,
2013-08-03 09:16:00,78.3,75.0,29.97,North,360,0.0,-999.0,90,-99.99,,,0.00,weatherlink.com 1.10,2013-08-03 13:16:00,
2013-08-03 09:31:00,79.1,76.0,29.97,South,188,0.0,-999.0,90,-99.99,,,0.00,weatherlink.com 1.10,2013-08-03 13:31:00,
2013-08-03 09:46:00,79.9,76.0,29.97,South,188,0.0,-999.0,88,-99.99,,,0.00,weatherlink.com 1.10,2013-08-03 13:46:00,
2013-08-03 10:01:00,80.8,76.0,29.97,South,191,0.0,-999.0,86,-99.99,,,0.00,weatherlink.com 1.10,2013-08-03 14:01:00,
2013-08-03 10:31:00,81.9,76.0,29.97,South,191,0.0,-999.0,83,-99.99,,,0.00,weatherlink.com 1.10,2013-08-03 14:31:00,
2013-08-03 11:01:00,83.2,76.0,29.96,NW,304,0.0,-999.0,80,-99.99,,,0.00,weatherlink.com 1.10,2013-08-03 15:01:00,
2013-08-03 11:31:00,83.6,77.0,29.96,West,268,0.0,-999.0,79,-99.99,,,0.00,weatherlink.com 1.10,2013-08-03 15:31:00,
2013-08-03 11:46:00,83.6,77.0,29.95,WNW,294,0.0,-999.0,80,-99.99,,,0.00,weatherlink.com 1.10,2013-08-03 15:46:00,
2013-08-03 12:01:00,83.3,76.0,29.95,WNW,294,0.0,-999.0,79,-99.99,,,0.00,weatherlink.com 1.10,2013-08-03 16:01:00,
2013-08-03 12:16:00,83.5,76.0,29.95,SW,216,0.0,-999.0,79,-99.99,,,0.00,weatherlink.com 1.10,2013-08-03 16:16:00,
2013-08-03 12:46:00,83.9,76.0,29.94,WNW,298,0.0,-999.0,78,-99.99,,,0.00,weatherlink.com 1.10,2013-08-03 16:46:00,
2013-08-03 13:01:00,85.0,78.0,29.93,WNW,294,0.0,-999.0,79,-99.99,,,0.00,weatherlink.com 1.10,2013-08-03 17:01:00,
2013-08-03 13:16:00,85.9,78.0,29.93,West,268,0.0,-999.0,77,-99.99,,,0.00,weatherlink.com 1.10,2013-08-03 17:16:00,
2013-08-03 13:31:00,86.5,77.0,29.92,SSW,200,0.0,-999.0,74,-99.99,,,0.00,weatherlink.com 1.10,2013-08-03 17:31:00,
2013-08-03 13:46:00,86.9,77.0,29.91,SSW,213,0.0,-999.0,73,-99.99,,,0.00,weatherlink.com 1.10,2013-08-03 17:46:00,
2013-08-03 14:02:00,87.3,78.0,29.91,NNW,333,0.0,-999.0,73,-99.99,,,0.00,weatherlink.com 1.10,2013-08-03 18:02:00,
2013-08-03 14:17:00,85.9,77.0,29.92,NNW,333,0.0,-999.0,74,-99.99,,,0.00,weatherlink.com 1.10,2013-08-03 18:17:00,
2013-08-03 14:31:00,84.6,77.0,29.91,SE,132,0.0,-999.0,78,-99.99,,,0.00,weatherlink.com 1.10,2013-08-03 18:31:00,
2013-08-03 14:47:00,83.7,77.0,29.91,SE,145,0.0,-999.0,79,-99.99,,,0.00,weatherlink.com 1.10,2013-08-03 18:47:00,
2013-08-03 15:02:00,82.5,77.0,29.92,SW,218,2.0,-999.0,83,-99.99,,,0.14,weatherlink.com 1.10,2013-08-03 19:02:00,
2013-08-03 15:17:00,74.2,71.0,29.91,ESE,103,0.0,-999.0,88,-99.99,,,0.57,weatherlink.com 1.10,2013-08-03 19:17:00,
2013-08-03 15:32:00,72.3,70.0,29.93,ESE,103,0.0,-999.0,93,-99.99,,,0.57,weatherlink.com 1.10,2013-08-03 19:32:00,
2013-08-03 15:47:00,72.1,71.0,29.90,SE,126,5.0,-999.0,95,-99.99,,,0.60,weatherlink.com 1.10,2013-08-03 19:47:00,
2013-08-03 16:02:00,71.1,70.0,29.92,ENE,71,0.0,-999.0,95,-99.99,,,0.61,weatherlink.com 1.10,2013-08-03 20:02:00,
2013-08-03 16:17:00,71.0,70.0,29.94,SSW,206,0.0,-999.0,96,-99.99,,,0.94,weatherlink.com 1.10,2013-08-03 20:17:00,
2013-08-03 16:32:00,70.4,70.0,29.95,West,269,0.0,-999.0,97,-99.99,,,1.12,weatherlink.com 1.10,2013-08-03 20:32:00,
2013-08-03 16:47:00,70.4,70.0,29.93,West,269,0.0,-999.0,97,-99.99,,,1.22,weatherlink.com 1.10,2013-08-03 20:47:00,
2013-08-03 17:02:00,71.2,71.0,29.91,West,269,0.0,-999.0,98,-99.99,,,1.23,weatherlink.com 1.10,2013-08-03 21:02:00,
2013-08-03 17:17:00,72.3,72.0,29.91,NNW,329,0.0,-999.0,98,-99.99,,,1.23,weatherlink.com 1.10,2013-08-03 21:17:00,
2013-08-03 17:32:00,73.0,73.0,29.91,NNW,329,0.0,-999.0,99,-99.99,,,1.23,weatherlink.com 1.10,2013-08-03 21:32:00,
2013-08-03 17:47:00,73.6,73.0,29.90,NNW,329,0.0,-999.0,99,-99.99,,,1.23,weatherlink.com 1.10,2013-08-03 21:47:00,
2013-08-03 18:02:00,74.0,74.0,29.90,SE,132,0.0,-999.0,99,-99.99,,,1.23,weatherlink.com 1.10,2013-08-03 22:02:00,
2013-08-03 18:17:00,74.2,74.0,29.89,SE,132,0.0,-999.0,99,-99.99,,,1.23,weatherlink.com 1.10,2013-08-03 22:17:00,
2013-08-03 18:32:00,74.7,74.0,29.89,SE,132,0.0,-999.0,99,-99.99,,,1.23,weatherlink.com 1.10,2013-08-03 22:32:00,
2013-08-03 18:47:00,74.8,75.0,29.89,SE,132,0.0,-999.0,99,-99.99,,,1.23,weatherlink.com 1.10,2013-08-03 22:47:00,
2013-08-03 19:02:00,74.6,74.0,29.92,WSW,243,0.0,-999.0,98,-99.99,,,1.23,weatherlink.com 1.10,2013-08-03 23:02:00,
2013-08-03 19:17:00,73.3,72.0,29.91,West,269,0.0,-999.0,97,-99.99,,,1.23,weatherlink.com 1.10,2013-08-03 23:17:00,
2013-08-03 19:32:00,73.0,72.0,29.90,West,269,0.0,-999.0,97,-99.99,,,1.23,weatherlink.com 1.10,2013-08-03 23:32:00,
2013-08-03 19:47:00,72.9,72.0,29.89,West,269,0.0,-999.0,98,-99.99,,,1.23,weatherlink.com 1.10,2013-08-03 23:47:00,
2013-08-03 20:02:00,72.7,72.0,29.88,West,269,0.0,-999.0,98,-99.99,,,1.23,weatherlink.com 1.10,2013-08-04 00:02:00,
2013-08-03 20:17:00,72.3,72.0,29.90,West,269,0.0,-999.0,98,-99.99,,,1.23,weatherlink.com 1.10,2013-08-04 00:17:00,
2013-08-03 20:32:00,72.1,72.0,29.90,West,269,0.0,-999.0,98,-99.99,,,1.23,weatherlink.com 1.10,2013-08-04 00:32:00,
2013-08-03 20:47:00,72.0,71.0,29.91,West,269,0.0,-999.0,98,-99.99,,,1.23,weatherlink.com 1.10,2013-08-04 00:47:00,
2013-08-03 21:02:00,71.7,71.0,29.92,West,269,0.0,-999.0,98,-99.99,,,1.23,weatherlink.com 1.10,2013-08-04 01:02:00,
2013-08-03 21:17:00,71.6,71.0,29.92,West,269,0.0,-999.0,98,-99.99,,,1.23,weatherlink.com 1.10,2013-08-04 01:17:00,
2013-08-03 21:32:00,71.8,72.0,29.93,West,269,0.0,-999.0,99,-99.99,,,1.23,weatherlink.com 1.10,2013-08-04 01:32:00,
2013-08-03 21:47:00,71.9,72.0,29.93,West,262,0.0,-999.0,99,-99.99,,,1.23,weatherlink.com 1.10,2013-08-04 01:47:00,
2013-08-03 22:02:00,71.9,72.0,29.93,West,262,0.0,-999.0,99,-99.99,,,1.23,weatherlink.com 1.10,2013-08-04 02:02:00,
2013-08-03 22:17:00,71.8,72.0,29.93,West,262,0.0,-999.0,99,-99.99,,,1.23,weatherlink.com 1.10,2013-08-04 02:17:00,
2013-08-03 22:32:00,71.8,72.0,29.92,West,262,0.0,-999.0,99,-99.99,,,1.23,weatherlink.com 1.10,2013-08-04 02:32:00,
2013-08-03 22:47:00,71.8,72.0,29.92,West,262,0.0,-999.0,99,-99.99,,,1.23,weatherlink.com 1.10,2013-08-04 02:47:00,
2013-08-03 23:02:00,71.5,71.0,29.92,West,262,0.0,-999.0,99,-99.99,,,1.23,weatherlink.com 1.10,2013-08-04 03:02:00,
2013-08-03 23:17:00,71.8,72.0,29.92,West,262,0.0,-999.0,99,-99.99,,,1.23,weatherlink.com 1.10,2013-08-04 03:17:00,
2013-08-03 23:32:00,71.8,72.0,29.92,West,262,0.0,-999.0,99,-99.99,,,1.23,weatherlink.com 1.10,2013-08-04 03:32:00,
2013-08-03 23:47:00,71.9,72.0,29.92,West,262,0.0,-999.0,99,-99.99,,,1.23,weatherlink.com 1.10,2013-08-04 03:47:00,